Latest Weather Observations for Inverell RS

IDN60801

Issued at 7:03 pm EST Monday 27 June 2016 (issued every 30 minutes, with the page automatically refreshed every 10 minutes)

About weather observations | Map of weather stations | Latest weather observations for NSW | Other Formats
Station Details ID: 056018 Name: INVERELL RESEARCH CENTRE Lat: -29.78 Lon: 151.08 Height: 664.0 m
Data from the previous 72 hours. | See also: Recent months at Inverell RS
Date/Time
EST
Temp
°C
App
Temp
°C
Dew
Point
°C
Rel
Hum
%
Delta-T
°C
Wind Press
QNH
hPa
Press
MSL
hPa
Rain since
9am
mm
Dir  Spd
km/h
Gust
km/h
Spd
kts
Gust
kts
27/07:00pm 4.6 1.0 2.7 87 0.8 WNW 11 20 6 11 1019.1 - 0.0
27/06:30pm 4.7 1.0 2.6 86 0.9 WNW 11 19 6 10 1018.6 - 0.0
27/06:00pm 4.8 1.9 2.7 86 0.9 W 7 17 4 9 1018.2 1018.5 0.0
27/05:30pm 4.9 1.7 3.3 89 0.7 WNW 9 17 5 9 1017.7 - 0.0
27/05:00pm 4.7 1.1 3.1 89 0.7 WNW 11 15 6 8 1017.2 - 0.0
27/04:30pm 5.3 1.0 3.0 85 1.0 WNW 15 24 8 13 1017.1 - 0.0
27/04:00pm 5.9 2.7 2.9 81 1.3 WNW 9 17 5 9 1016.9 - 0.0
27/03:30pm 5.7 2.7 3.9 88 0.8 WNW 9 13 5 7 1016.5 - 0.0
27/03:00pm 6.0 2.1 3.5 84 1.1 WNW 13 22 7 12 1016.3 1016.5 0.0
27/02:30pm 6.1 3.4 3.6 84 1.1 W 7 11 4 6 1015.9 - 0.0
27/02:00pm 6.0 2.8 3.2 82 1.2 W 9 15 5 8 1015.8 - 0.0
27/01:30pm 6.1 3.5 3.4 83 1.2 SW 6 9 3 5 1015.8 - 0.0
27/01:00pm 5.9 3.2 3.6 85 1.0 S 7 13 4 7 1015.8 - 0.0
27/12:30pm 5.8 2.8 4.0 88 0.8 W 9 17 5 9 1016.2 - 0.0
27/12:00pm 5.1 2.4 3.7 91 0.6 SW 7 15 4 8 1016.6 1016.9 0.0
27/11:30am 5.1 2.1 4.2 94 0.4 W 9 15 5 8 1016.9 - 0.0
27/11:00am 5.2 2.2 4.3 94 0.4 WSW 9 15 5 8 1017.1 - 0.0
27/10:30am 5.0 2.0 4.3 95 0.3 W 9 13 5 7 1017.2 - 0.0
27/10:00am 4.9 1.9 4.0 94 0.4 W 9 13 5 7 1017.1 - 0.0
27/09:30am 5.2 2.3 4.5 95 0.3 W 9 11 5 6 1017.0 - 0.0
27/09:00am 5.8 2.9 4.9 94 0.4 WNW 9 15 5 8 1016.8 1017.1 1.4
27/08:30am 5.3 3.0 4.6 95 0.3 W 6 9 3 5 1016.5 - 1.4
27/08:00am 5.0 2.0 3.9 93 0.5 W 9 15 5 8 1016.6 - 1.4
27/07:30am 5.1 2.6 4.9 99 0.1 NW 7 9 4 5 1016.2 - 0.8
27/07:00am 4.9 3.0 4.9 100 0.0 N 4 7 2 4 1015.6 - 0.6
27/06:30am 4.8 3.2 4.6 99 0.1 N 2 6 1 3 1015.3 - 0.4
27/06:00am 5.0 1.6 4.1 94 0.4 NNW 11 17 6 9 1015.4 1015.7 0.0
27/05:30am 5.4 2.0 3.8 89 0.7 NNW 11 15 6 8 1015.4 - 0.0
27/05:00am 6.1 2.9 3.1 81 1.3 N 9 13 5 7 1015.3 - 0.0
27/04:30am 6.1 2.9 2.9 80 1.4 NW 9 11 5 6 1015.2 - 0.0
27/04:00am 6.0 3.2 3.0 81 1.3 NW 7 9 4 5 1015.2 - 0.0
27/03:30am 6.1 4.5 2.6 78 1.5 CALM 0 0 0 0 1015.3 - 0.0
27/03:00am 5.9 3.1 2.9 81 1.3 SW 7 11 4 6 1015.1 1015.3 0.0
27/02:30am 5.8 3.0 3.3 84 1.1 WNW 7 11 4 6 1015.4 - 0.0
27/02:00am 6.2 3.3 2.5 77 1.6 W 7 9 4 5 1015.8 - 0.0
27/01:30am 6.0 3.3 2.5 78 1.5 WNW 6 7 3 4 1015.2 - 0.0
27/01:00am 6.0 4.0 2.2 76 1.6 ENE 2 9 1 5 1014.9 - 0.0
27/12:30am 5.9 3.9 2.4 78 1.5 NNE 2 9 1 5 1015.4 - 0.0
27/12:00am 5.6 3.2 2.3 79 1.4 N 4 9 2 5 1015.4 1015.6 0.0
 
Date/Time
EST
Temp
°C
App
Temp
°C
Dew
Point
°C
Rel
Hum
%
Delta-T
°C
Wind Press
QNH
hPa
Press
MSL
hPa
Rain since
9am
mm
Dir  Spd
km/h
Gust
km/h
Spd
kts
Gust
kts
26/11:30pm 5.9 3.8 1.6 74 1.8 ENE 2 7 1 4 1016.0 - 0.0
26/11:00pm 6.3 3.8 1.8 73 1.9 WNW 4 7 2 4 1016.6 - 0.0
26/10:30pm 6.4 4.6 1.1 69 2.2 CALM 0 0 0 0 1017.0 - 0.0
26/10:00pm 6.7 3.2 1.2 68 2.3 WSW 9 13 5 7 1017.4 - 0.0
26/09:30pm 6.7 3.8 1.2 68 2.3 WSW 6 9 3 5 1017.4 - 0.0
26/09:00pm 6.5 3.9 1.2 69 2.2 SSW 4 9 2 5 1016.9 1017.1 0.0
26/08:30pm 6.8 3.3 1.0 66 2.4 NNW 9 13 5 7 1017.5 - 0.0
26/08:00pm 6.3 4.5 1.0 69 2.2 CALM 0 0 0 0 1017.4 - 0.0
26/07:30pm 6.9 4.7 0.9 65 2.5 N 2 9 1 5 1016.7 - 0.0
26/07:00pm 7.3 3.7 0.5 62 2.8 WNW 9 11 5 6 1017.5 - 0.0
26/06:30pm 7.5 4.8 0.5 61 2.9 NE 4 7 2 4 1016.8 - 0.0
26/06:00pm 7.5 5.3 1.1 64 2.7 ENE 2 7 1 4 1016.8 1017.2 0.0
26/05:30pm 8.2 4.5 0.2 57 3.3 NNW 9 11 5 6 1017.9 - 0.0
26/05:00pm 8.5 5.2 0.0 55 3.5 N 7 9 4 5 1017.4 - 0.0
26/04:30pm 9.1 5.7 -0.7 50 4.0 NNE 7 11 4 6 1016.9 - 0.0
26/04:00pm 9.5 5.3 -1.1 47 4.3 N 11 15 6 8 1016.7 - 0.0
26/03:30pm 9.9 5.7 -1.2 46 4.5 NNW 11 19 6 10 1016.9 - 0.0
26/03:00pm 10.1 5.1 -1.5 44 4.7 N 15 22 8 12 1017.2 1017.5 0.0
26/02:30pm 10.3 5.2 -1.9 42 4.9 N 15 24 8 13 1017.1 - 0.0
26/02:00pm 10.7 4.7 -2.7 39 5.3 N 19 26 10 14 1017.5 - 0.0
26/01:30pm 10.0 5.3 -1.7 44 4.7 NE 13 20 7 11 1016.7 - 0.0
26/01:00pm 9.3 5.0 -1.7 46 4.4 NNE 11 17 6 9 1017.6 - 0.0
26/12:30pm 8.6 4.2 -2.5 45 4.3 N 11 17 6 9 1018.6 - 0.0
26/12:00pm 8.1 3.8 -1.8 49 3.9 NNE 11 13 6 7 1019.4 1019.7 0.0
26/11:30am 7.4 3.5 -1.5 53 3.5 N 9 13 5 7 1019.7 - 0.0
26/11:00am 7.5 3.0 -3.1 47 4.0 N 11 13 6 7 1020.3 - 0.0
26/10:30am 7.2 3.5 -2.5 50 3.7 NNE 7 9 4 5 1021.1 - 0.0
26/10:00am 5.5 2.8 -2.2 57 2.9 ENE 2 7 1 4 1021.2 - 0.0
26/09:30am 3.5 0.0 -2.5 65 2.2 SSE 6 9 3 5 1020.6 - 0.0
26/09:00am 2.8 - 3.3 - - CALM 0 7 0 4 1020.0 1020.3 0.0
26/08:30am 2.2 -0.9 -2.8 69 1.8 NE 4 7 2 4 1020.2 - 0.0
26/08:00am 2.0 -0.3 -2.5 72 1.6 CALM 0 0 0 0 1020.7 - 0.0
26/07:30am 0.8 - - - - CALM 0 0 0 0 1020.7 - 0.0
26/07:00am -0.6 - - - - SSE 6 7 3 4 1019.9 - 0.0
26/06:30am -1.3 - - - - S 7 9 4 5 1019.7 - 0.0
26/06:00am -1.5 - - - - SE 6 7 3 4 1019.5 1019.8 0.0
26/05:30am -1.4 - - - - S 7 9 4 5 1019.4 - 0.0
26/05:00am -0.1 - - - - SSW 9 11 5 6 1019.1 - 0.0
26/04:30am 0.1 - - - - SSW 9 13 5 7 1018.6 - 0.0
26/04:00am 0.0 - - - - SSW 9 13 5 7 1018.8 - 0.0
26/03:30am -0.3 - - - - SSW 7 11 4 6 1018.6 - 0.0
26/03:00am -0.1 - - - - S 9 13 5 7 1018.6 1018.9 0.0
26/02:30am -1.6 - - - - SSW 9 11 5 6 1019.0 - 0.0
26/02:00am 0.5 - - - - S 7 9 4 5 1019.0 - 0.0
26/01:30am 1.2 - - - - S 9 11 5 6 1019.5 - 0.0
26/01:00am 1.1 - - - - S 9 11 5 6 1019.7 - 0.0
26/12:30am 0.6 - - - - S 9 11 5 6 1019.8 - 0.0
26/12:00am 0.3 - - - - CALM 0 6 0 3 1020.0 1020.3 0.0
 
Date/Time
EST
Temp
°C
App
Temp
°C
Dew
Point
°C
Rel
Hum
%
Delta-T
°C
Wind Press
QNH
hPa
Press
MSL
hPa
Rain since
9am
mm
Dir  Spd
km/h
Gust
km/h
Spd
kts
Gust
kts
25/11:30pm 0.3 - - - - S 7 9 4 5 1020.2 - 0.0
25/11:00pm 0.8 - - - - S 7 7 4 4 1020.6 - 0.0
25/10:30pm 0.8 - - - - S 7 9 4 5 1020.8 - 0.0
25/10:00pm 1.7 -2.2 -1.6 79 1.2 WSW 9 13 5 7 1020.8 - 0.0
25/09:30pm 3.0 -0.9 -1.6 72 1.7 SW 9 13 5 7 1020.4 - 0.0
25/09:00pm 2.9 -1.1 -2.0 70 1.8 WSW 9 13 5 7 1020.7 1021.0 0.0
25/08:30pm 3.5 -0.5 -1.9 68 2.0 SW 9 11 5 6 1020.4 - 0.0
25/08:00pm 3.5 -0.5 -1.9 68 2.0 WSW 9 11 5 6 1020.6 - 0.0
25/07:30pm 4.2 0.6 -1.9 64 2.3 WSW 7 11 4 6 1020.3 - 0.0
25/07:00pm 5.0 1.3 -2.9 56 2.9 SW 7 13 4 7 1020.1 - 0.0
25/06:30pm 5.2 1.0 -3.6 53 3.2 WSW 9 11 5 6 1019.8 - 0.0
25/06:00pm 5.2 1.1 -2.9 56 3.0 WSW 9 11 5 6 1019.4 1019.7 0.0
25/05:30pm 5.8 2.0 -3.8 50 3.5 WSW 7 11 4 6 1019.1 - 0.0
25/05:00pm 6.9 3.2 -4.7 43 4.2 SSW 6 9 3 5 1018.8 - 0.0
25/04:30pm 7.7 3.0 -5.0 40 4.6 S 11 17 6 9 1018.6 - 0.0
25/04:00pm 8.9 5.0 -4.2 39 4.9 SSW 7 13 4 7 1018.4 - 0.0
25/03:30pm 9.2 5.0 -4.1 39 5.0 SW 9 15 5 8 1018.4 - 0.0
25/03:00pm 9.7 5.4 -4.8 35 5.4 SW 9 15 5 8 1018.3 1018.7 0.0
25/02:30pm 9.4 4.2 -5.7 34 5.5 SW 13 22 7 12 1018.3 - 0.0
25/02:00pm 9.6 5.0 -4.2 37 5.2 S 11 26 6 14 1018.2 - 0.0
25/01:30pm 9.2 4.4 -5.7 34 5.4 SSW 11 24 6 13 1018.4 - 0.0
25/01:00pm 8.6 3.2 -4.7 38 4.9 S 15 28 8 15 1018.6 - 0.0
25/12:30pm 8.5 3.5 -4.1 40 4.7 SSW 13 22 7 12 1019.0 - 0.0
25/12:00pm 7.9 2.9 -3.9 43 4.4 SSW 13 24 7 13 1019.3 1019.6 0.0
25/11:30am 8.4 4.1 -1.7 49 4.0 SW 11 19 6 10 1019.3 - 0.0
25/11:00am 6.7 2.3 -2.2 53 3.4 SSW 11 19 6 10 1019.7 - 0.0
25/10:30am 6.1 1.5 -1.4 58 2.9 S 13 30 7 16 1019.7 - 0.0
25/10:00am 5.8 1.2 -1.1 61 2.7 S 13 26 7 14 1019.9 - 0.0
25/09:30am 5.3 0.7 -1.2 63 2.5 SSW 13 26 7 14 1019.8 - 0.0
25/09:00am 5.1 1.0 -0.5 67 2.2 SSE 11 20 6 11 1019.5 1019.8 0.2
25/08:30am 4.1 0.3 -1.1 69 2.0 SSW 9 22 5 12 1019.2 - 0.2
25/08:00am 3.3 -0.5 -0.9 74 1.6 SSE 9 17 5 9 1019.6 - 0.2
25/07:30am 2.3 -1.5 -0.6 81 1.1 ESE 9 15 5 8 1019.5 - 0.2
25/07:00am 1.5 -2.0 -1.2 82 1.0 SE 7 9 4 5 1019.2 - 0.2
25/06:30am 1.7 -2.1 -0.7 84 0.9 SE 9 13 5 7 1019.0 - 0.2
25/06:00am 1.7 -1.5 -0.7 84 0.9 NE 6 7 3 4 1018.7 1019.0 0.2
25/05:30am 2.7 -1.2 -1.3 75 1.5 SSE 9 13 5 7 1018.4 - 0.2
25/05:00am 2.4 -0.8 -0.8 79 1.2 N 6 7 3 4 1018.4 - 0.2
25/04:30am 3.6 0.2 -0.5 74 1.6 S 7 13 4 7 1018.1 - 0.2
25/04:00am 3.5 -0.3 -0.7 74 1.6 SSW 9 13 5 7 1018.0 - 0.2
25/03:30am 3.3 0.0 -1.2 72 1.7 ESE 6 7 3 4 1018.2 - 0.2
25/03:00am 3.8 0.8 -1.8 67 2.1 WSW 4 11 2 6 1018.0 1018.3 0.2
25/02:30am 4.2 1.2 -1.6 66 2.2 NNW 4 7 2 4 1018.1 - 0.2
25/02:00am 4.3 1.0 0.0 73 1.7 NW 7 9 4 5 1018.2 - 0.2
25/01:30am 5.2 2.4 -0.4 67 2.2 NNW 4 9 2 5 1018.3 - 0.2
25/01:00am 5.3 1.9 -0.9 64 2.4 W 7 13 4 7 1018.2 - 0.2
25/12:30am 5.6 2.3 -1.4 60 2.7 WNW 6 13 3 7 1018.0 - 0.2
25/12:00am 5.9 2.0 -1.6 58 2.9 W 9 19 5 10 1017.9 1018.2 0.2
 
Date/Time
EST
Temp
°C
App
Temp
°C
Dew
Point
°C
Rel
Hum
%
Delta-T
°C
Wind Press
QNH
hPa
Press
MSL
hPa
Rain since
9am
mm
Dir  Spd
km/h
Gust
km/h
Spd
kts
Gust
kts
24/11:30pm 6.2 2.3 -1.2 59 2.9 WNW 9 15 5 8 1017.5 - 0.2
24/11:00pm 6.6 2.4 -1.0 58 3.0 W 11 22 6 12 1017.2 - 0.2
24/10:30pm 6.8 2.4 0.5 64 2.6 WNW 13 20 7 11 1017.4 - 0.2
24/10:00pm 7.0 3.0 0.4 63 2.7 WNW 11 19 6 10 1017.1 - 0.2
24/09:30pm 7.2 3.7 1.2 65 2.5 WNW 9 15 5 8 1017.0 - 0.2
24/09:00pm 7.4 3.6 1.5 66 2.5 NW 11 15 6 8 1016.7 1017.0 0.2
24/08:30pm 8.0 4.1 1.4 63 2.8 WNW 11 22 6 12 1016.4 - 0.2
24/08:00pm 8.0 3.9 2.0 66 2.6 WNW 13 24 7 13 1016.2 - 0.2
24/07:30pm 8.4 4.1 3.2 70 2.3 WNW 15 26 8 14 1015.8 - 0.2

Other Formats:

Comma delimited format used in spreadsheet applications
http://www.bom.gov.au/fwo/IDN60801/IDN60801.94541.axf

JavaScript Object Notation format (JSON) in row-major order
http://www.bom.gov.au/fwo/IDN60801/IDN60801.94541.json